sensor_id;sensor_type;location;lat;lon;timestamp;pressure;altitude;pressure_sealevel;temperature;humidity
61359;BME280;47228;46.762;23.598;2022-10-31T00:01:30;97827.82;;;11.32;85.81
61359;BME280;47228;46.762;23.598;2022-10-31T00:03:58;97827.39;;;11.30;85.72
61359;BME280;47228;46.762;23.598;2022-10-31T00:06:26;97832.02;;;11.30;85.92
61359;BME280;47228;46.762;23.598;2022-10-31T00:08:56;97836.45;;;11.31;86.10
61359;BME280;47228;46.762;23.598;2022-10-31T00:11:25;97838.95;;;11.32;86.14
61359;BME280;47228;46.762;23.598;2022-10-31T00:13:53;97844.86;;;11.35;85.97
61359;BME280;47228;46.762;23.598;2022-10-31T00:16:23;97846.17;;;11.35;85.85
61359;BME280;47228;46.762;23.598;2022-10-31T00:18:53;97842.94;;;11.36;85.63
61359;BME280;47228;46.762;23.598;2022-10-31T00:21:22;97840.43;;;11.33;85.37
61359;BME280;47228;46.762;23.598;2022-10-31T00:23:51;97838.08;;;11.28;85.04
61359;BME280;47228;46.762;23.598;2022-10-31T00:26:19;97841.73;;;11.24;85.24
61359;BME280;47228;46.762;23.598;2022-10-31T00:28:47;97840.27;;;11.22;85.24
61359;BME280;47228;46.762;23.598;2022-10-31T00:31:15;97839.59;;;11.22;85.59
61359;BME280;47228;46.762;23.598;2022-10-31T00:33:43;97835.95;;;11.23;86.11
61359;BME280;47228;46.762;23.598;2022-10-31T00:36:14;97835.77;;;11.25;85.90
61359;BME280;47228;46.762;23.598;2022-10-31T00:38:43;97833.76;;;11.24;85.71
61359;BME280;47228;46.762;23.598;2022-10-31T00:41:12;97836.89;;;11.23;85.62
61359;BME280;47228;46.762;23.598;2022-10-31T00:43:43;97840.11;;;11.20;85.47
61359;BME280;47228;46.762;23.598;2022-10-31T00:46:12;97840.58;;;11.18;85.27
61359;BME280;47228;46.762;23.598;2022-10-31T00:48:41;97839.05;;;11.16;85.52
61359;BME280;47228;46.762;23.598;2022-10-31T00:51:09;97840.09;;;11.15;85.73
61359;BME280;47228;46.762;23.598;2022-10-31T00:53:37;97843.77;;;11.15;85.72
61359;BME280;47228;46.762;23.598;2022-10-31T00:56:05;97840.94;;;11.15;85.58
61359;BME280;47228;46.762;23.598;2022-10-31T00:58:33;97840.98;;;11.14;85.50
61359;BME280;47228;46.762;23.598;2022-10-31T01:01:02;97838.79;;;11.11;85.61
61359;BME280;47228;46.762;23.598;2022-10-31T01:03:32;97837.73;;;11.11;85.60
61359;BME280;47228;46.762;23.598;2022-10-31T01:08:30;97836.94;;;11.09;85.41
61359;BME280;47228;46.762;23.598;2022-10-31T01:11:24;97832.98;;;11.06;85.43
61359;BME280;47228;46.762;23.598;2022-10-31T01:13:53;97833.76;;;11.05;85.49
61359;BME280;47228;46.762;23.598;2022-10-31T01:16:23;97834.23;;;11.05;85.91
61359;BME280;47228;46.762;23.598;2022-10-31T01:18:52;97832.37;;;11.06;85.91
61359;BME280;47228;46.762;23.598;2022-10-31T01:21:22;97831.88;;;11.05;85.83
61359;BME280;47228;46.762;23.598;2022-10-31T01:23:52;97832.98;;;11.05;85.65
61359;BME280;47228;46.762;23.598;2022-10-31T01:26:23;97837.83;;;11.02;85.68
61359;BME280;47228;46.762;23.598;2022-10-31T01:28:56;97836.77;;;10.97;85.75
61359;BME280;47228;46.762;23.598;2022-10-31T01:31:27;97840.86;;;10.96;85.87
61359;BME280;47228;46.762;23.598;2022-10-31T01:33:57;97838.98;;;10.96;86.55
61359;BME280;47228;46.762;23.598;2022-10-31T01:36:26;97839.73;;;10.99;86.48
61359;BME280;47228;46.762;23.598;2022-10-31T01:39:06;97842.86;;;11.03;86.45
61359;BME280;47228;46.762;23.598;2022-10-31T01:41:38;97838.38;;;11.05;86.44
61359;BME280;47228;46.762;23.598;2022-10-31T01:49:24;97843.98;;;11.06;85.99
61359;BME280;47228;46.762;23.598;2022-10-31T01:52:38;97842.31;;;11.06;85.99
61359;BME280;47228;46.762;23.598;2022-10-31T01:55:08;97844.96;;;11.06;86.23
61359;BME280;47228;46.762;23.598;2022-10-31T01:57:40;97844.18;;;11.05;86.01
61359;BME280;47228;46.762;23.598;2022-10-31T02:00:11;97844.22;;;11.03;85.98
61359;BME280;47228;46.762;23.598;2022-10-31T02:02:40;97843.45;;;11.01;85.85
61359;BME280;47228;46.762;23.598;2022-10-31T02:05:12;97841.42;;;11.00;86.05
61359;BME280;47228;46.762;23.598;2022-10-31T02:07:58;97838.34;;;10.97;86.00
61359;BME280;47228;46.762;23.598;2022-10-31T02:10:27;97838.52;;;10.96;86.20
61359;BME280;47228;46.762;23.598;2022-10-31T02:12:57;97839.12;;;10.93;86.06
61359;BME280;47228;46.762;23.598;2022-10-31T02:15:26;97842.63;;;10.92;86.31
61359;BME280;47228;46.762;23.598;2022-10-31T02:17:56;97845.16;;;10.93;86.24
61359;BME280;47228;46.762;23.598;2022-10-31T02:20:32;97843.60;;;10.92;86.13
61359;BME280;47228;46.762;23.598;2022-10-31T02:26:06;97842.11;;;10.87;86.04
61359;BME280;47228;46.762;23.598;2022-10-31T02:29:10;97839.46;;;10.84;86.12
61359;BME280;47228;46.762;23.598;2022-10-31T02:31:58;97842.36;;;10.84;86.57
61359;BME280;47228;46.762;23.598;2022-10-31T02:37:12;97840.42;;;10.86;86.74
61359;BME280;47228;46.762;23.598;2022-10-31T02:39:54;97844.20;;;10.89;86.70
61359;BME280;47228;46.762;23.598;2022-10-31T02:42:53;97845.30;;;10.87;86.37
61359;BME280;47228;46.762;23.598;2022-10-31T02:47:55;97840.90;;;10.84;86.58
61359;BME280;47228;46.762;23.598;2022-10-31T02:50:32;97841.50;;;10.83;86.45
61359;BME280;47228;46.762;23.598;2022-10-31T02:53:02;97844.53;;;10.85;86.75
61359;BME280;47228;46.762;23.598;2022-10-31T02:58:11;97845.77;;;10.89;86.95
61359;BME280;47228;46.762;23.598;2022-10-31T03:01:03;97847.48;;;10.91;86.70
61359;BME280;47228;46.762;23.598;2022-10-31T03:06:46;97849.10;;;10.88;86.49
61359;BME280;47228;46.762;23.598;2022-10-31T03:09:28;97849.59;;;10.84;86.53
61359;BME280;47228;46.762;23.598;2022-10-31T03:12:04;97851.47;;;10.82;86.56
61359;BME280;47228;46.762;23.598;2022-10-31T03:14:41;97848.06;;;10.81;86.88
61359;BME280;47228;46.762;23.598;2022-10-31T03:17:50;97848.66;;;10.79;86.67
61359;BME280;47228;46.762;23.598;2022-10-31T03:20:24;97852.69;;;10.75;86.65
61359;BME280;47228;46.762;23.598;2022-10-31T03:22:56;97849.34;;;10.70;86.73
61359;BME280;47228;46.762;23.598;2022-10-31T03:25:25;97855.98;;;10.68;87.13
61359;BME280;47228;46.762;23.598;2022-10-31T03:27:53;97856.80;;;10.69;87.59
61359;BME280;47228;46.762;23.598;2022-10-31T03:30:22;97853.96;;;10.71;87.60
61359;BME280;47228;46.762;23.598;2022-10-31T03:32:54;97855.91;;;10.73;87.51
61359;BME280;47228;46.762;23.598;2022-10-31T03:35:25;97856.21;;;10.76;87.62
61359;BME280;47228;46.762;23.598;2022-10-31T03:37:56;97859.34;;;10.80;87.55
61359;BME280;47228;46.762;23.598;2022-10-31T03:40:31;97860.31;;;10.80;87.21
61359;BME280;47228;46.762;23.598;2022-10-31T03:43:06;97859.46;;;10.80;87.19
61359;BME280;47228;46.762;23.598;2022-10-31T03:45:41;97860.43;;;10.79;87.21
61359;BME280;47228;46.762;23.598;2022-10-31T03:48:11;97857.85;;;10.79;87.08
61359;BME280;47228;46.762;23.598;2022-10-31T03:53:40;97862.11;;;10.80;87.04
61359;BME280;47228;46.762;23.598;2022-10-31T03:56:19;97862.30;;;10.81;87.28
61359;BME280;47228;46.762;23.598;2022-10-31T03:59:17;97862.63;;;10.83;87.34
61359;BME280;47228;46.762;23.598;2022-10-31T04:01:50;97864.97;;;10.84;87.20
61359;BME280;47228;46.762;23.598;2022-10-31T04:04:20;97866.72;;;10.83;86.96
61359;BME280;47228;46.762;23.598;2022-10-31T04:06:49;97865.88;;;10.80;86.79
61359;BME280;47228;46.762;23.598;2022-10-31T04:09:19;97862.77;;;10.78;86.96
61359;BME280;47228;46.762;23.598;2022-10-31T04:11:53;97861.69;;;10.77;87.04
61359;BME280;47228;46.762;23.598;2022-10-31T04:14:24;97861.31;;;10.77;87.04
61359;BME280;47228;46.762;23.598;2022-10-31T04:16:53;97859.84;;;10.76;87.15
61359;BME280;47228;46.762;23.598;2022-10-31T04:19:21;97863.40;;;10.77;87.41
61359;BME280;47228;46.762;23.598;2022-10-31T04:21:49;97862.39;;;10.78;87.33
61359;BME280;47228;46.762;23.598;2022-10-31T04:24:17;97864.94;;;10.80;87.35
61359;BME280;47228;46.762;23.598;2022-10-31T04:26:45;97864.88;;;10.82;87.21
61359;BME280;47228;46.762;23.598;2022-10-31T04:29:12;97862.71;;;10.84;87.22
61359;BME280;47228;46.762;23.598;2022-10-31T04:31:40;97867.26;;;10.84;86.83
61359;BME280;47228;46.762;23.598;2022-10-31T04:34:08;97865.88;;;10.85;87.08
61359;BME280;47228;46.762;23.598;2022-10-31T04:36:36;97865.56;;;10.86;87.05
61359;BME280;47228;46.762;23.598;2022-10-31T04:39:04;97863.67;;;10.86;86.83
61359;BME280;47228;46.762;23.598;2022-10-31T04:41:32;97867.19;;;10.85;86.81
61359;BME280;47228;46.762;23.598;2022-10-31T04:43:59;97867.96;;;10.84;86.94
61359;BME280;47228;46.762;23.598;2022-10-31T04:46:27;97870.05;;;10.85;86.86
61359;BME280;47228;46.762;23.598;2022-10-31T04:48:55;97875.13;;;10.85;86.73
61359;BME280;47228;46.762;23.598;2022-10-31T04:51:23;97880.63;;;10.84;86.46
61359;BME280;47228;46.762;23.598;2022-10-31T04:53:51;97885.55;;;10.82;86.42
61359;BME280;47228;46.762;23.598;2022-10-31T04:56:19;97888.67;;;10.79;86.36
61359;BME280;47228;46.762;23.598;2022-10-31T04:58:47;97890.50;;;10.77;86.37
61359;BME280;47228;46.762;23.598;2022-10-31T05:01:15;97889.42;;;10.74;86.28
61359;BME280;47228;46.762;23.598;2022-10-31T05:03:43;97888.08;;;10.69;86.11
61359;BME280;47228;46.762;23.598;2022-10-31T05:06:11;97891.58;;;10.64;86.15
61359;BME280;47228;46.762;23.598;2022-10-31T05:08:39;97897.02;;;10.61;86.64
61359;BME280;47228;46.762;23.598;2022-10-31T05:11:06;97895.49;;;10.64;86.96
61359;BME280;47228;46.762;23.598;2022-10-31T05:13:34;97894.24;;;10.65;86.93
61359;BME280;47228;46.762;23.598;2022-10-31T05:16:02;97891.20;;;10.67;86.84
61359;BME280;47228;46.762;23.598;2022-10-31T05:18:30;97894.36;;;10.70;86.68
61359;BME280;47228;46.762;23.598;2022-10-31T05:20:58;97894.98;;;10.71;86.57
61359;BME280;47228;46.762;23.598;2022-10-31T05:23:26;97900.75;;;10.71;86.51
61359;BME280;47228;46.762;23.598;2022-10-31T05:25:54;97902.81;;;10.72;86.52
61359;BME280;47228;46.762;23.598;2022-10-31T05:28:22;97900.89;;;10.71;86.70
61359;BME280;47228;46.762;23.598;2022-10-31T05:30:50;97901.06;;;10.73;87.18
61359;BME280;47228;46.762;23.598;2022-10-31T05:33:20;97901.63;;;10.77;87.52
61359;BME280;47228;46.762;23.598;2022-10-31T05:35:48;97904.08;;;10.82;87.03
61359;BME280;47228;46.762;23.598;2022-10-31T05:38:21;97904.21;;;10.84;86.71
61359;BME280;47228;46.762;23.598;2022-10-31T05:40:49;97904.70;;;10.84;86.85
61359;BME280;47228;46.762;23.598;2022-10-31T05:43:17;97905.79;;;10.85;86.84
61359;BME280;47228;46.762;23.598;2022-10-31T05:45:45;97913.48;;;10.86;86.77
61359;BME280;47228;46.762;23.598;2022-10-31T05:48:13;97913.06;;;10.86;86.66
61359;BME280;47228;46.762;23.598;2022-10-31T05:50:40;97912.63;;;10.87;86.51
61359;BME280;47228;46.762;23.598;2022-10-31T05:53:09;97910.80;;;10.89;86.63
61359;BME280;47228;46.762;23.598;2022-10-31T05:55:36;97911.00;;;10.89;86.42
61359;BME280;47228;46.762;23.598;2022-10-31T05:58:04;97914.02;;;10.89;86.38
61359;BME280;47228;46.762;23.598;2022-10-31T06:00:32;97917.74;;;10.89;86.44
61359;BME280;47228;46.762;23.598;2022-10-31T06:03:05;97923.33;;;10.87;86.38
61359;BME280;47228;46.762;23.598;2022-10-31T06:05:33;97929.29;;;10.85;86.03
61359;BME280;47228;46.762;23.598;2022-10-31T06:08:01;97931.80;;;10.82;86.08
61359;BME280;47228;46.762;23.598;2022-10-31T06:10:30;97930.31;;;10.77;85.95
61359;BME280;47228;46.762;23.598;2022-10-31T06:12:57;97930.02;;;10.72;86.08
61359;BME280;47228;46.762;23.598;2022-10-31T06:15:25;97932.36;;;10.68;86.54
61359;BME280;47228;46.762;23.598;2022-10-31T06:17:59;97934.59;;;10.65;86.86
61359;BME280;47228;46.762;23.598;2022-10-31T06:20:28;97935.30;;;10.64;86.82
61359;BME280;47228;46.762;23.598;2022-10-31T06:22:56;97937.34;;;10.63;86.79
61359;BME280;47228;46.762;23.598;2022-10-31T06:25:25;97940.26;;;10.64;87.06
61359;BME280;47228;46.762;23.598;2022-10-31T06:27:54;97943.19;;;10.63;86.93
61359;BME280;47228;46.762;23.598;2022-10-31T06:30:23;97943.70;;;10.62;86.80
61359;BME280;47228;46.762;23.598;2022-10-31T06:32:51;97941.17;;;10.58;86.72
61359;BME280;47228;46.762;23.598;2022-10-31T06:35:19;97940.38;;;10.57;87.16
61359;BME280;47228;46.762;23.598;2022-10-31T06:37:51;97940.34;;;10.57;87.14
61359;BME280;47228;46.762;23.598;2022-10-31T06:40:20;97938.39;;;10.54;86.49
61359;BME280;47228;46.762;23.598;2022-10-31T06:42:56;97940.86;;;10.48;86.46
61359;BME280;47228;46.762;23.598;2022-10-31T06:45:25;97942.90;;;10.46;86.76
61359;BME280;47228;46.762;23.598;2022-10-31T06:47:54;97944.85;;;10.43;86.80
61359;BME280;47228;46.762;23.598;2022-10-31T06:50:42;97943.92;;;10.42;86.91
61359;BME280;47228;46.762;23.598;2022-10-31T06:53:11;97942.38;;;10.42;87.02
61359;BME280;47228;46.762;23.598;2022-10-31T06:55:40;97941.02;;;10.42;86.95
61359;BME280;47228;46.762;23.598;2022-10-31T06:58:09;97937.25;;;10.46;87.14
61359;BME280;47228;46.762;23.598;2022-10-31T07:00:38;97935.14;;;10.51;87.38
61359;BME280;47228;46.762;23.598;2022-10-31T07:03:10;97933.15;;;10.57;87.12
61359;BME280;47228;46.762;23.598;2022-10-31T07:05:38;97932.45;;;10.57;86.47
61359;BME280;47228;46.762;23.598;2022-10-31T07:08:09;97934.64;;;10.58;86.67
61359;BME280;47228;46.762;23.598;2022-10-31T07:10:38;97931.14;;;10.59;86.43
61359;BME280;47228;46.762;23.598;2022-10-31T07:13:13;97935.80;;;10.60;86.20
61359;BME280;47228;46.762;23.598;2022-10-31T07:15:42;97932.45;;;10.61;86.39
61359;BME280;47228;46.762;23.598;2022-10-31T07:18:12;97933.38;;;10.64;86.11
61359;BME280;47228;46.762;23.598;2022-10-31T07:20:40;97929.33;;;10.65;86.12
61359;BME280;47228;46.762;23.598;2022-10-31T07:23:09;97925.47;;;10.69;86.14
61359;BME280;47228;46.762;23.598;2022-10-31T07:25:41;97927.84;;;10.74;86.28
61359;BME280;47228;46.762;23.598;2022-10-31T07:28:10;97925.10;;;10.79;86.24
61359;BME280;47228;46.762;23.598;2022-10-31T07:30:38;97922.86;;;10.84;85.98
61359;BME280;47228;46.762;23.598;2022-10-31T07:33:06;97920.98;;;10.88;85.72
61359;BME280;47228;46.762;23.598;2022-10-31T07:35:34;97921.14;;;10.93;85.47
61359;BME280;47228;46.762;23.598;2022-10-31T07:38:10;97923.05;;;10.97;85.29
61359;BME280;47228;46.762;23.598;2022-10-31T07:40:39;97923.60;;;11.00;84.70
61359;BME280;47228;46.762;23.598;2022-10-31T07:43:08;97926.23;;;11.02;84.56
61359;BME280;47228;46.762;23.598;2022-10-31T07:45:41;97926.37;;;11.04;84.27
61359;BME280;47228;46.762;23.598;2022-10-31T07:48:09;97928.26;;;11.04;84.24
61359;BME280;47228;46.762;23.598;2022-10-31T07:50:36;97930.47;;;11.05;84.11
61359;BME280;47228;46.762;23.598;2022-10-31T07:53:07;97934.64;;;11.07;84.04
61359;BME280;47228;46.762;23.598;2022-10-31T07:55:36;97937.71;;;11.09;83.99
61359;BME280;47228;46.762;23.598;2022-10-31T08:00:38;97941.84;;;11.09;83.49
61359;BME280;47228;46.762;23.598;2022-10-31T08:03:12;97943.02;;;11.08;83.33
61359;BME280;47228;46.762;23.598;2022-10-31T08:05:41;97938.95;;;11.06;83.14
61359;BME280;47228;46.762;23.598;2022-10-31T08:08:09;97940.08;;;11.06;83.31
61359;BME280;47228;46.762;23.598;2022-10-31T08:10:37;97944.88;;;11.10;83.71
61359;BME280;47228;46.762;23.598;2022-10-31T08:13:09;97943.89;;;11.17;83.91
61359;BME280;47228;46.762;23.598;2022-10-31T08:15:37;97947.23;;;11.24;84.06
61359;BME280;47228;46.762;23.598;2022-10-31T08:18:12;97946.71;;;11.31;83.93
61359;BME280;47228;46.762;23.598;2022-10-31T08:20:41;97952.16;;;11.39;83.51
61359;BME280;47228;46.762;23.598;2022-10-31T08:23:11;97952.88;;;11.42;83.07
61359;BME280;47228;46.762;23.598;2022-10-31T08:25:39;97953.19;;;11.45;83.22
61359;BME280;47228;46.762;23.598;2022-10-31T08:28:09;97954.23;;;11.48;83.33
61359;BME280;47228;46.762;23.598;2022-10-31T08:30:38;97959.23;;;11.53;83.11
61359;BME280;47228;46.762;23.598;2022-10-31T08:33:12;97960.35;;;11.58;82.95
61359;BME280;47228;46.762;23.598;2022-10-31T08:35:41;97958.39;;;11.64;82.85
61359;BME280;47228;46.762;23.598;2022-10-31T08:38:10;97958.95;;;11.70;82.58
61359;BME280;47228;46.762;23.598;2022-10-31T08:40:39;97955.33;;;11.73;82.97
61359;BME280;47228;46.762;23.598;2022-10-31T08:43:12;97954.17;;;11.79;82.97
61359;BME280;47228;46.762;23.598;2022-10-31T08:45:40;97958.14;;;11.87;82.66
61359;BME280;47228;46.762;23.598;2022-10-31T08:48:11;97959.20;;;11.96;82.55
61359;BME280;47228;46.762;23.598;2022-10-31T08:50:40;97960.23;;;12.03;81.98
61359;BME280;47228;46.762;23.598;2022-10-31T08:53:17;97963.73;;;12.08;81.76
61359;BME280;47228;46.762;23.598;2022-10-31T08:55:46;97967.35;;;12.12;81.44
61359;BME280;47228;46.762;23.598;2022-10-31T08:58:17;97966.93;;;12.13;80.82
61359;BME280;47228;46.762;23.598;2022-10-31T09:00:47;97963.19;;;12.08;80.34
61359;BME280;47228;46.762;23.598;2022-10-31T09:03:18;97967.17;;;12.04;80.57
61359;BME280;47228;46.762;23.598;2022-10-31T09:05:46;97971.57;;;12.02;80.57
61359;BME280;47228;46.762;23.598;2022-10-31T09:08:15;97972.59;;;12.02;80.55
61359;BME280;47228;46.762;23.598;2022-10-31T09:10:44;97972.27;;;12.03;80.64
61359;BME280;47228;46.762;23.598;2022-10-31T09:13:20;97970.02;;;12.06;80.78
61359;BME280;47228;46.762;23.598;2022-10-31T09:15:50;97971.02;;;12.09;80.80
61359;BME280;47228;46.762;23.598;2022-10-31T09:18:20;97970.66;;;12.12;80.59
61359;BME280;47228;46.762;23.598;2022-10-31T09:20:49;97972.02;;;12.15;80.35
61359;BME280;47228;46.762;23.598;2022-10-31T09:23:20;97966.85;;;12.20;80.14
61359;BME280;47228;46.762;23.598;2022-10-31T09:25:49;97966.88;;;12.20;79.81
61359;BME280;47228;46.762;23.598;2022-10-31T09:28:20;97967.78;;;12.18;79.70
61359;BME280;47228;46.762;23.598;2022-10-31T09:30:51;97966.34;;;12.17;79.96
61359;BME280;47228;46.762;23.598;2022-10-31T09:33:20;97970.05;;;12.14;79.88
61359;BME280;47228;46.762;23.598;2022-10-31T09:35:48;97973.73;;;12.12;80.46
61359;BME280;47228;46.762;23.598;2022-10-31T09:38:18;97974.15;;;12.13;80.54
61359;BME280;47228;46.762;23.598;2022-10-31T09:40:52;97973.83;;;12.13;80.75
61359;BME280;47228;46.762;23.598;2022-10-31T09:43:33;97975.26;;;12.14;80.59
61359;BME280;47228;46.762;23.598;2022-10-31T09:46:30;97976.61;;;12.13;80.52
61359;BME280;47228;46.762;23.598;2022-10-31T09:52:00;97974.55;;;12.12;80.32
61359;BME280;47228;46.762;23.598;2022-10-31T09:54:43;97976.10;;;12.10;80.46
61359;BME280;47228;46.762;23.598;2022-10-31T09:57:16;97976.14;;;12.11;80.69
61359;BME280;47228;46.762;23.598;2022-10-31T09:59:47;97977.91;;;12.11;80.52
61359;BME280;47228;46.762;23.598;2022-10-31T10:02:30;97976.60;;;12.12;80.43
61359;BME280;47228;46.762;23.598;2022-10-31T10:05:02;97977.63;;;12.12;80.31
61359;BME280;47228;46.762;23.598;2022-10-31T10:07:48;97979.06;;;12.12;80.45
61359;BME280;47228;46.762;23.598;2022-10-31T10:10:29;97983.15;;;12.10;80.40
61359;BME280;47228;46.762;23.598;2022-10-31T10:13:17;97981.14;;;12.09;80.72
61359;BME280;47228;46.762;23.598;2022-10-31T10:18:29;97980.03;;;12.09;80.56
61359;BME280;47228;46.762;23.598;2022-10-31T10:21:18;97978.89;;;12.11;80.98
61359;BME280;47228;46.762;23.598;2022-10-31T10:24:00;97977.02;;;12.15;80.86
61359;BME280;47228;46.762;23.598;2022-10-31T10:26:37;97973.64;;;12.17;80.90
61359;BME280;47228;46.762;23.598;2022-10-31T10:29:44;97974.67;;;12.18;80.79
61359;BME280;47228;46.762;23.598;2022-10-31T10:32:11;97973.45;;;12.21;80.75
61359;BME280;47228;46.762;23.598;2022-10-31T10:34:49;97970.60;;;12.24;80.45
61359;BME280;47228;46.762;23.598;2022-10-31T10:37:26;97969.84;;;12.22;80.17
61359;BME280;47228;46.762;23.598;2022-10-31T10:42:35;97968.27;;;12.24;80.48
61359;BME280;47228;46.762;23.598;2022-10-31T10:45:23;97965.03;;;12.25;80.43
61359;BME280;47228;46.762;23.598;2022-10-31T10:48:39;97962.90;;;12.28;80.27
61359;BME280;47228;46.762;23.598;2022-10-31T10:54:46;97960.08;;;12.30;79.98
61359;BME280;47228;46.762;23.598;2022-10-31T11:00:30;97957.71;;;12.32;80.18
61359;BME280;47228;46.762;23.598;2022-10-31T11:02:58;97960.77;;;12.38;80.59
61359;BME280;47228;46.762;23.598;2022-10-31T11:05:33;97959.55;;;12.41;79.72
61359;BME280;47228;46.762;23.598;2022-10-31T11:08:03;97959.20;;;12.38;79.60
61359;BME280;47228;46.762;23.598;2022-10-31T11:10:31;97958.48;;;12.38;79.43
61359;BME280;47228;46.762;23.598;2022-10-31T11:13:24;97958.31;;;12.37;79.52
61359;BME280;47228;46.762;23.598;2022-10-31T11:16:06;97956.79;;;12.37;79.63
61359;BME280;47228;46.762;23.598;2022-10-31T11:18:42;97957.58;;;12.41;80.06
61359;BME280;47228;46.762;23.598;2022-10-31T11:21:29;97954.92;;;12.45;79.94
61359;BME280;47228;46.762;23.598;2022-10-31T11:26:39;97949.48;;;12.50;79.78
61359;BME280;47228;46.762;23.598;2022-10-31T11:29:23;97949.55;;;12.54;80.19
61359;BME280;47228;46.762;23.598;2022-10-31T11:31:54;97948.40;;;12.57;79.97
61359;BME280;47228;46.762;23.598;2022-10-31T11:34:31;97946.60;;;12.60;79.50
61359;BME280;47228;46.762;23.598;2022-10-31T11:37:10;97944.80;;;12.64;79.20
61359;BME280;47228;46.762;23.598;2022-10-31T11:39:42;97942.59;;;12.66;79.18
61359;BME280;47228;46.762;23.598;2022-10-31T11:42:11;97944.00;;;12.70;79.32
61359;BME280;47228;46.762;23.598;2022-10-31T11:44:42;97943.92;;;12.75;79.48
61359;BME280;47228;46.762;23.598;2022-10-31T11:47:14;97944.66;;;12.79;79.00
61359;BME280;47228;46.762;23.598;2022-10-31T11:49:45;97943.19;;;12.82;78.94
61359;BME280;47228;46.762;23.598;2022-10-31T11:52:28;97947.95;;;12.85;78.92
61359;BME280;47228;46.762;23.598;2022-10-31T11:55:14;97947.75;;;12.89;78.96
61359;BME280;47228;46.762;23.598;2022-10-31T11:57:48;97946.27;;;12.94;78.70
61359;BME280;47228;46.762;23.598;2022-10-31T12:00:25;97948.05;;;12.95;78.27
61359;BME280;47228;46.762;23.598;2022-10-31T12:06:23;97943.27;;;12.94;77.67
61359;BME280;47228;46.762;23.598;2022-10-31T12:08:53;97947.89;;;12.92;77.83
61359;BME280;47228;46.762;23.598;2022-10-31T12:25:11;97945.98;;;12.83;78.02
61359;BME280;47228;46.762;23.598;2022-10-31T12:28:07;97946.36;;;12.88;78.10
61359;BME280;47228;46.762;23.598;2022-10-31T12:33:39;97944.23;;;12.88;77.18
61359;BME280;47228;46.762;23.598;2022-10-31T12:36:44;97937.94;;;12.86;77.07
61359;BME280;47228;46.762;23.598;2022-10-31T12:50:28;97933.05;;;12.71;77.41
61359;BME280;47228;46.762;23.598;2022-10-31T12:58:33;97935.10;;;12.78;77.50
61359;BME280;47228;46.762;23.598;2022-10-31T13:01:28;97928.58;;;12.84;77.27
61359;BME280;47228;46.762;23.598;2022-10-31T13:04:04;97928.80;;;12.85;77.13
61359;BME280;47228;46.762;23.598;2022-10-31T13:06:37;97927.93;;;12.85;77.13
61359;BME280;47228;46.762;23.598;2022-10-31T13:09:16;97927.68;;;12.85;76.90
61359;BME280;47228;46.762;23.598;2022-10-31T13:11:53;97926.51;;;12.87;76.98
61359;BME280;47228;46.762;23.598;2022-10-31T13:14:34;97925.23;;;12.90;77.15
61359;BME280;47228;46.762;23.598;2022-10-31T13:17:05;97922.50;;;12.91;76.79
61359;BME280;47228;46.762;23.598;2022-10-31T13:19:38;97917.69;;;12.90;76.61
61359;BME280;47228;46.762;23.598;2022-10-31T13:22:26;97915.36;;;12.88;76.90
61359;BME280;47228;46.762;23.598;2022-10-31T13:27:42;97913.59;;;12.86;76.64
61359;BME280;47228;46.762;23.598;2022-10-31T13:32:44;97914.73;;;12.89;77.00
61359;BME280;47228;46.762;23.598;2022-10-31T13:35:29;97914.45;;;12.91;77.04
61359;BME280;47228;46.762;23.598;2022-10-31T13:38:14;97912.27;;;12.93;77.14
61359;BME280;47228;46.762;23.598;2022-10-31T13:40:59;97913.92;;;12.94;77.12
61359;BME280;47228;46.762;23.598;2022-10-31T13:46:36;97910.84;;;12.93;76.85
61359;BME280;47228;46.762;23.598;2022-10-31T13:49:24;97911.38;;;12.93;77.06
61359;BME280;47228;46.762;23.598;2022-10-31T13:51:52;97910.32;;;12.93;77.14
61359;BME280;47228;46.762;23.598;2022-10-31T13:54:32;97910.35;;;12.92;77.03
61359;BME280;47228;46.762;23.598;2022-10-31T13:57:01;97909.94;;;12.93;77.13
61359;BME280;47228;46.762;23.598;2022-10-31T13:59:30;97905.71;;;12.94;77.13
61359;BME280;47228;46.762;23.598;2022-10-31T14:02:02;97905.96;;;12.95;77.00
61359;BME280;47228;46.762;23.598;2022-10-31T14:04:44;97905.88;;;12.96;77.17
61359;BME280;47228;46.762;23.598;2022-10-31T14:07:19;97907.30;;;12.96;77.19
61359;BME280;47228;46.762;23.598;2022-10-31T14:10:05;97907.60;;;12.95;77.08
61359;BME280;47228;46.762;23.598;2022-10-31T14:12:37;97906.57;;;12.94;77.10
61359;BME280;47228;46.762;23.598;2022-10-31T14:17:46;97904.20;;;12.92;77.14
61359;BME280;47228;46.762;23.598;2022-10-31T14:22:43;97909.12;;;12.89;77.12
61359;BME280;47228;46.762;23.598;2022-10-31T14:28:02;97911.45;;;12.82;77.07
61359;BME280;47228;46.762;23.598;2022-10-31T14:30:33;97911.27;;;12.79;77.00
61359;BME280;47228;46.762;23.598;2022-10-31T14:33:12;97909.45;;;12.76;77.19
61359;BME280;47228;46.762;23.598;2022-10-31T14:35:53;97909.77;;;12.74;77.36
61359;BME280;47228;46.762;23.598;2022-10-31T14:38:47;97911.73;;;12.71;77.43
61359;BME280;47228;46.762;23.598;2022-10-31T14:44:44;97916.67;;;12.66;77.47
61359;BME280;47228;46.762;23.598;2022-10-31T14:52:37;97909.29;;;12.57;77.58
61359;BME280;47228;46.762;23.598;2022-10-31T14:55:11;97910.14;;;12.51;77.42
61359;BME280;47228;46.762;23.598;2022-10-31T14:57:49;97908.98;;;12.44;77.53
61359;BME280;47228;46.762;23.598;2022-10-31T15:00:20;97906.66;;;12.36;77.23
61359;BME280;47228;46.762;23.598;2022-10-31T15:05:31;97905.73;;;12.19;77.33
61359;BME280;47228;46.762;23.598;2022-10-31T15:08:00;97909.91;;;12.11;77.49
61359;BME280;47228;46.762;23.598;2022-10-31T15:10:31;97912.17;;;12.06;77.88